MSC Brianna — 3FXG7 — position and weather

sailwx.info

Track history (hours):
 
Tides and Currents Weather Stations Pressure Air Temp Water Temp Dewpoint Dewpoint Depression Visibility Wind Speed Wind Dir Waves Ship Positions

MSC Brianna

Last reported at 2017-Nov-16 19:51 UTC. Time now 2017-Nov-19 16:02 UTC.
Position N 30°59' E 122°22'.

Length 245 m; draft 12.4 m.

Type: Ship (hazmat cat A). MMSI: 351766000.

Date/timePositionNaut miles runAvg speedWind from/ knotsBaromVisibWave heightAir tempDewpointWater temp
2017-Nov-16 19:51N 30°59' E 122°22'0 0.3
2017-Nov-16 19:31N 30°60' E 122°22'0 0.1
2017-Nov-16 19:00N 30°59' E 122°22'0 0.1
2017-Nov-16 18:31N 30°59' E 122°22'3 4.7
2017-Nov-16 17:59N 31°01' E 122°20'4 8.4
2017-Nov-16 17:30N 31°02' E 122°15'4 7.8
2017-Nov-16 17:00N 31°03' E 122°11'510.0
2017-Nov-16 16:31N 31°04' E 122°05'5 9.3
2017-Nov-16 16:00N 31°05' E 121°60'4 8.6
2017-Nov-16 15:30N 31°07' E 121°55'5 8.9
2017-Nov-16 15:00N 31°10' E 121°51'4 8.5
2017-Nov-16 14:30N 31°13' E 121°48'4 8.0
2017-Nov-16 14:00N 31°16' E 121°45'4 7.8
2017-Nov-16 13:31N 31°19' E 121°42'4 8.2
2017-Nov-16 13:01N 31°21' E 121°38'5 9.5
2017-Nov-16 12:30N 31°24' E 121°33'4 8.9
2017-Nov-16 12:01N 31°26' E 121°29'5 9.2
2017-Nov-16 11:30N 31°30' E 121°25'510.2
2017-Nov-16 11:01N 31°33' E 121°20'510.8
2017-Nov-16 10:31N 31°37' E 121°16'510.7
2017-Nov-16 10:00N 31°40' E 121°12'510.1
2017-Nov-16 09:28N 31°44' E 121°07'  
2017-Nov-09 18:15N 32°02' E 120°26'4 8.0
2017-Nov-09 17:47N 32°02' E 120°30'17 8.3
2017-Nov-09 15:42N 31°59' E 120°50'2 9.0
2017-Nov-09 15:26N 31°57' E 120°52'5 9.6
2017-Nov-09 14:57N 31°52' E 120°54'5 9.1
2017-Nov-09 14:25N 31°48' E 120°56'10 8.5
2017-Nov-09 13:17N 31°44' E 121°06'3 9.5
2017-Nov-09 13:00N 31°42' E 121°08'5 9.6
2017-Nov-09 12:30N 31°40' E 121°13'5 9.9
2017-Nov-09 12:00N 31°36' E 121°17'510.4
2017-Nov-09 11:31N 31°32' E 121°21'611.0
2017-Nov-09 11:00N 31°29' E 121°26'5 9.8
2017-Nov-09 10:31N 31°26' E 121°30'4 8.0
2017-Nov-09 10:01N 31°24' E 121°34'5 9.8
2017-Nov-09 09:31N 31°21' E 121°39'5 9.8
2017-Nov-09 09:01N 31°19' E 121°44'5 9.5
2017-Nov-09 08:30N 31°17' E 121°50'1010.7
2017-Nov-09 07:34N 31°15' E 122°01'2 8.6
2017-Nov-09 07:21N 31°14' E 122°03'9 7.5
2017-Nov-09 06:06N 31°10' E 122°13'3 8.7
2017-Nov-09 05:45N 31°08' E 122°15'310.3
2017-Nov-09 05:28N 31°06' E 122°18'23 3.8
2017-Nov-08 23:28N 31°09' E 122°45'  
Track history (hours):
 
Tides and Currents Weather Stations Pressure Air Temp Water Temp Dewpoint Dewpoint Depression Visibility Wind Speed Wind Dir Waves Ship Positions

MSC Brianna

Last reported at 2017-Nov-16 19:51 UTC. Time now 2017-Nov-19 16:02 UTC.
Position N 30°59' E 122°22'.

Length 245 m; draft 12.4 m.

Type: Ship (hazmat cat A). MMSI: 351766000.

Date/timePositionNaut miles runAvg speedWind from/ knotsBaromVisibWave heightAir tempDewpointWater temp
2017-Nov-16 19:51N 30°59' E 122°22'0 0.3
2017-Nov-16 19:31N 30°60' E 122°22'0 0.1
2017-Nov-16 19:00N 30°59' E 122°22'0 0.1
2017-Nov-16 18:31N 30°59' E 122°22'3 4.7
2017-Nov-16 17:59N 31°01' E 122°20'4 8.4
2017-Nov-16 17:30N 31°02' E 122°15'4 7.8
2017-Nov-16 17:00N 31°03' E 122°11'510.0
2017-Nov-16 16:31N 31°04' E 122°05'5 9.3
2017-Nov-16 16:00N 31°05' E 121°60'4 8.6
2017-Nov-16 15:30N 31°07' E 121°55'5 8.9
2017-Nov-16 15:00N 31°10' E 121°51'4 8.5
2017-Nov-16 14:30N 31°13' E 121°48'4 8.0
2017-Nov-16 14:00N 31°16' E 121°45'4 7.8
2017-Nov-16 13:31N 31°19' E 121°42'4 8.2
2017-Nov-16 13:01N 31°21' E 121°38'5 9.5
2017-Nov-16 12:30N 31°24' E 121°33'4 8.9
2017-Nov-16 12:01N 31°26' E 121°29'5 9.2
2017-Nov-16 11:30N 31°30' E 121°25'510.2
2017-Nov-16 11:01N 31°33' E 121°20'510.8
2017-Nov-16 10:31N 31°37' E 121°16'510.7
2017-Nov-16 10:00N 31°40' E 121°12'510.1
2017-Nov-16 09:28N 31°44' E 121°07'  
2017-Nov-09 18:15N 32°02' E 120°26'4 8.0
2017-Nov-09 17:47N 32°02' E 120°30'17 8.3
2017-Nov-09 15:42N 31°59' E 120°50'2 9.0
2017-Nov-09 15:26N 31°57' E 120°52'5 9.6
2017-Nov-09 14:57N 31°52' E 120°54'5 9.1
2017-Nov-09 14:25N 31°48' E 120°56'10 8.5
2017-Nov-09 13:17N 31°44' E 121°06'3 9.5
2017-Nov-09 13:00N 31°42' E 121°08'5 9.6
2017-Nov-09 12:30N 31°40' E 121°13'5 9.9
2017-Nov-09 12:00N 31°36' E 121°17'510.4
2017-Nov-09 11:31N 31°32' E 121°21'611.0
2017-Nov-09 11:00N 31°29' E 121°26'5 9.8
2017-Nov-09 10:31N 31°26' E 121°30'4 8.0
2017-Nov-09 10:01N 31°24' E 121°34'5 9.8
2017-Nov-09 09:31N 31°21' E 121°39'5 9.8
2017-Nov-09 09:01N 31°19' E 121°44'5 9.5
2017-Nov-09 08:30N 31°17' E 121°50'1010.7
2017-Nov-09 07:34N 31°15' E 122°01'2 8.6
2017-Nov-09 07:21N 31°14' E 122°03'9 7.5
2017-Nov-09 06:06N 31°10' E 122°13'3 8.7
2017-Nov-09 05:45N 31°08' E 122°15'310.3
2017-Nov-09 05:28N 31°06' E 122°18'23 3.8
2017-Nov-08 23:28N 31°09' E 122°45'  

Dump ship's entire track history